sensor_id;sensor_type;location;lat;lon;timestamp;temperature;humidity
46117;DHT22;32591;48.102;11.772;2022-12-18T00:02:26;-3.00;99.90
46117;DHT22;32591;48.102;11.772;2022-12-18T00:04:53;-2.90;99.90
46117;DHT22;32591;48.102;11.772;2022-12-18T00:07:20;-2.90;99.90
46117;DHT22;32591;48.102;11.772;2022-12-18T00:09:47;-2.90;99.90
46117;DHT22;32591;48.102;11.772;2022-12-18T00:12:14;-2.80;99.90
46117;DHT22;32591;48.102;11.772;2022-12-18T00:14:41;-2.90;99.90
46117;DHT22;32591;48.102;11.772;2022-12-18T00:17:09;-2.90;99.90
46117;DHT22;32591;48.102;11.772;2022-12-18T00:19:36;-3.10;99.90
46117;DHT22;32591;48.102;11.772;2022-12-18T00:22:03;-3.40;99.90
46117;DHT22;32591;48.102;11.772;2022-12-18T00:24:31;-3.40;99.90
46117;DHT22;32591;48.102;11.772;2022-12-18T00:26:58;-3.40;99.90
46117;DHT22;32591;48.102;11.772;2022-12-18T00:29:25;-3.40;99.90
46117;DHT22;32591;48.102;11.772;2022-12-18T00:31:52;-3.50;99.90
46117;DHT22;32591;48.102;11.772;2022-12-18T00:34:21;-3.40;99.90
46117;DHT22;32591;48.102;11.772;2022-12-18T00:36:48;-3.30;99.90
46117;DHT22;32591;48.102;11.772;2022-12-18T00:39:15;-3.20;99.90
46117;DHT22;32591;48.102;11.772;2022-12-18T00:41:42;-3.20;99.90
46117;DHT22;32591;48.102;11.772;2022-12-18T00:44:27;-3.10;99.90
46117;DHT22;32591;48.102;11.772;2022-12-18T00:46:54;-3.00;99.90
46117;DHT22;32591;48.102;11.772;2022-12-18T00:49:22;-3.00;99.90
46117;DHT22;32591;48.102;11.772;2022-12-18T00:51:50;-2.90;99.90
46117;DHT22;32591;48.102;11.772;2022-12-18T00:54:21;-2.90;99.90
46117;DHT22;32591;48.102;11.772;2022-12-18T00:56:48;-2.90;99.90
46117;DHT22;32591;48.102;11.772;2022-12-18T00:59:16;-2.90;99.90
46117;DHT22;32591;48.102;11.772;2022-12-18T01:01:44;-3.10;99.90
46117;DHT22;32591;48.102;11.772;2022-12-18T01:04:12;-3.00;99.90
46117;DHT22;32591;48.102;11.772;2022-12-18T01:06:41;-3.00;99.90
46117;DHT22;32591;48.102;11.772;2022-12-18T01:09:08;-3.00;99.90
46117;DHT22;32591;48.102;11.772;2022-12-18T01:11:35;-2.90;99.90
46117;DHT22;32591;48.102;11.772;2022-12-18T01:14:03;-2.90;99.90
46117;DHT22;32591;48.102;11.772;2022-12-18T01:16:30;-2.90;99.90
46117;DHT22;32591;48.102;11.772;2022-12-18T01:18:57;-2.80;99.90
46117;DHT22;32591;48.102;11.772;2022-12-18T01:21:24;-2.80;99.90
46117;DHT22;32591;48.102;11.772;2022-12-18T01:23:54;-2.90;99.90
46117;DHT22;32591;48.102;11.772;2022-12-18T01:26:22;-2.90;99.90
46117;DHT22;32591;48.102;11.772;2022-12-18T01:28:49;-2.90;99.90
46117;DHT22;32591;48.102;11.772;2022-12-18T01:31:18;-2.90;99.90
46117;DHT22;32591;48.102;11.772;2022-12-18T01:33:46;-2.90;99.90
46117;DHT22;32591;48.102;11.772;2022-12-18T01:36:16;-2.90;99.90
46117;DHT22;32591;48.102;11.772;2022-12-18T01:38:45;-2.90;99.90
46117;DHT22;32591;48.102;11.772;2022-12-18T01:41:15;-2.80;99.90
46117;DHT22;32591;48.102;11.772;2022-12-18T01:43:49;-2.80;99.90
46117;DHT22;32591;48.102;11.772;2022-12-18T01:46:19;-2.80;99.90
46117;DHT22;32591;48.102;11.772;2022-12-18T01:48:50;-2.80;99.90
46117;DHT22;32591;48.102;11.772;2022-12-18T01:51:19;-2.70;99.90
46117;DHT22;32591;48.102;11.772;2022-12-18T01:53:47;-2.80;99.90
46117;DHT22;32591;48.102;11.772;2022-12-18T01:56:21;-2.70;99.90
46117;DHT22;32591;48.102;11.772;2022-12-18T01:58:55;-2.70;99.90
46117;DHT22;32591;48.102;11.772;2022-12-18T02:01:24;-2.60;99.90
46117;DHT22;32591;48.102;11.772;2022-12-18T02:03:52;-2.60;99.90
46117;DHT22;32591;48.102;11.772;2022-12-18T02:06:22;-2.60;99.90
46117;DHT22;32591;48.102;11.772;2022-12-18T02:09:02;-2.60;99.90
46117;DHT22;32591;48.102;11.772;2022-12-18T02:11:46;-2.60;99.90
46117;DHT22;32591;48.102;11.772;2022-12-18T02:14:21;-2.60;99.90
46117;DHT22;32591;48.102;11.772;2022-12-18T02:16:54;-2.60;99.90
46117;DHT22;32591;48.102;11.772;2022-12-18T02:19:44;-2.60;99.90
46117;DHT22;32591;48.102;11.772;2022-12-18T02:22:18;-2.60;99.90
46117;DHT22;32591;48.102;11.772;2022-12-18T02:25:03;-2.60;99.90
46117;DHT22;32591;48.102;11.772;2022-12-18T02:27:37;-2.60;99.90
46117;DHT22;32591;48.102;11.772;2022-12-18T02:30:07;-2.70;99.90
46117;DHT22;32591;48.102;11.772;2022-12-18T02:32:37;-2.70;99.90
46117;DHT22;32591;48.102;11.772;2022-12-18T02:35:11;-2.70;99.90
46117;DHT22;32591;48.102;11.772;2022-12-18T02:37:42;-2.60;99.90
46117;DHT22;32591;48.102;11.772;2022-12-18T02:40:11;-2.60;99.90
46117;DHT22;32591;48.102;11.772;2022-12-18T02:42:40;-2.60;99.90
46117;DHT22;32591;48.102;11.772;2022-12-18T02:45:09;-2.60;99.90
46117;DHT22;32591;48.102;11.772;2022-12-18T02:47:38;-2.80;99.90
46117;DHT22;32591;48.102;11.772;2022-12-18T02:50:13;-2.80;99.90
46117;DHT22;32591;48.102;11.772;2022-12-18T02:52:55;-2.80;99.90
46117;DHT22;32591;48.102;11.772;2022-12-18T02:55:35;-2.80;99.90
46117;DHT22;32591;48.102;11.772;2022-12-18T02:58:15;-2.80;99.90
46117;DHT22;32591;48.102;11.772;2022-12-18T03:00:50;-2.80;99.90
46117;DHT22;32591;48.102;11.772;2022-12-18T03:03:24;-2.80;99.90
46117;DHT22;32591;48.102;11.772;2022-12-18T03:05:57;-2.80;99.90
46117;DHT22;32591;48.102;11.772;2022-12-18T03:08:28;-2.70;99.90
46117;DHT22;32591;48.102;11.772;2022-12-18T03:11:01;-2.70;99.90
46117;DHT22;32591;48.102;11.772;2022-12-18T03:13:34;-2.60;99.90
46117;DHT22;32591;48.102;11.772;2022-12-18T03:16:06;-2.60;99.90
46117;DHT22;32591;48.102;11.772;2022-12-18T03:18:38;-2.60;99.90
46117;DHT22;32591;48.102;11.772;2022-12-18T03:21:11;-2.50;99.90
46117;DHT22;32591;48.102;11.772;2022-12-18T03:23:42;-2.60;99.90
46117;DHT22;32591;48.102;11.772;2022-12-18T03:26:15;-2.50;99.90
46117;DHT22;32591;48.102;11.772;2022-12-18T03:28:48;-2.60;99.90
46117;DHT22;32591;48.102;11.772;2022-12-18T03:31:18;-2.60;99.90
46117;DHT22;32591;48.102;11.772;2022-12-18T03:33:50;-2.60;99.90
46117;DHT22;32591;48.102;11.772;2022-12-18T03:36:18;-2.60;99.90
46117;DHT22;32591;48.102;11.772;2022-12-18T03:38:45;-2.70;99.90
46117;DHT22;32591;48.102;11.772;2022-12-18T03:41:19;-2.70;99.90
46117;DHT22;32591;48.102;11.772;2022-12-18T03:43:52;-2.80;99.90
46117;DHT22;32591;48.102;11.772;2022-12-18T03:46:28;-2.80;99.90
46117;DHT22;32591;48.102;11.772;2022-12-18T03:49:01;-2.70;99.90
46117;DHT22;32591;48.102;11.772;2022-12-18T03:51:39;-2.70;99.90
46117;DHT22;32591;48.102;11.772;2022-12-18T03:54:10;-2.70;99.90
46117;DHT22;32591;48.102;11.772;2022-12-18T03:56:46;-2.70;99.90
46117;DHT22;32591;48.102;11.772;2022-12-18T03:59:17;-2.70;99.90
46117;DHT22;32591;48.102;11.772;2022-12-18T04:01:47;-2.70;99.90
46117;DHT22;32591;48.102;11.772;2022-12-18T04:04:17;-2.70;99.90
46117;DHT22;32591;48.102;11.772;2022-12-18T04:06:45;-2.70;99.90
46117;DHT22;32591;48.102;11.772;2022-12-18T04:09:14;-2.70;99.90
46117;DHT22;32591;48.102;11.772;2022-12-18T04:11:41;-2.70;99.90
46117;DHT22;32591;48.102;11.772;2022-12-18T04:14:09;-2.70;99.90
46117;DHT22;32591;48.102;11.772;2022-12-18T04:16:38;-2.80;99.90
46117;DHT22;32591;48.102;11.772;2022-12-18T04:19:05;-2.80;99.90
46117;DHT22;32591;48.102;11.772;2022-12-18T04:21:32;-2.70;99.90
46117;DHT22;32591;48.102;11.772;2022-12-18T04:23:59;-2.70;99.90
46117;DHT22;32591;48.102;11.772;2022-12-18T04:26:25;-2.60;99.90
46117;DHT22;32591;48.102;11.772;2022-12-18T04:28:52;-2.70;99.90
46117;DHT22;32591;48.102;11.772;2022-12-18T04:31:19;-2.70;99.90
46117;DHT22;32591;48.102;11.772;2022-12-18T04:33:48;-2.60;99.90
46117;DHT22;32591;48.102;11.772;2022-12-18T04:36:15;-2.70;99.90
46117;DHT22;32591;48.102;11.772;2022-12-18T04:38:42;-2.60;99.90
46117;DHT22;32591;48.102;11.772;2022-12-18T04:41:09;-2.60;99.90
46117;DHT22;32591;48.102;11.772;2022-12-18T04:43:39;-2.60;99.90
46117;DHT22;32591;48.102;11.772;2022-12-18T04:46:06;-2.60;99.90
46117;DHT22;32591;48.102;11.772;2022-12-18T04:48:35;-2.70;99.90
46117;DHT22;32591;48.102;11.772;2022-12-18T04:51:04;-2.70;99.90
46117;DHT22;32591;48.102;11.772;2022-12-18T04:53:33;-2.60;99.90
46117;DHT22;32591;48.102;11.772;2022-12-18T04:56:05;-2.60;99.90
46117;DHT22;32591;48.102;11.772;2022-12-18T04:58:33;-2.60;99.90
46117;DHT22;32591;48.102;11.772;2022-12-18T05:01:00;-2.50;99.90
46117;DHT22;32591;48.102;11.772;2022-12-18T05:03:27;-2.50;99.90
46117;DHT22;32591;48.102;11.772;2022-12-18T05:05:54;-2.50;99.90
46117;DHT22;32591;48.102;11.772;2022-12-18T05:08:22;-2.50;99.90
46117;DHT22;32591;48.102;11.772;2022-12-18T05:10:49;-2.60;99.90
46117;DHT22;32591;48.102;11.772;2022-12-18T05:13:16;-2.70;99.90
46117;DHT22;32591;48.102;11.772;2022-12-18T05:15:51;-2.70;99.90
46117;DHT22;32591;48.102;11.772;2022-12-18T05:18:19;-2.80;99.90
46117;DHT22;32591;48.102;11.772;2022-12-18T05:20:46;-2.80;99.90
46117;DHT22;32591;48.102;11.772;2022-12-18T05:23:13;-2.70;99.90
46117;DHT22;32591;48.102;11.772;2022-12-18T05:25:50;-2.70;99.90
46117;DHT22;32591;48.102;11.772;2022-12-18T05:28:17;-2.80;99.90
46117;DHT22;32591;48.102;11.772;2022-12-18T05:30:48;-2.80;99.90
46117;DHT22;32591;48.102;11.772;2022-12-18T05:33:16;-2.80;99.90
46117;DHT22;32591;48.102;11.772;2022-12-18T05:35:44;-2.80;99.90
46117;DHT22;32591;48.102;11.772;2022-12-18T05:38:11;-2.80;99.90
46117;DHT22;32591;48.102;11.772;2022-12-18T05:40:41;-2.80;99.90
46117;DHT22;32591;48.102;11.772;2022-12-18T05:43:09;-2.80;99.90
46117;DHT22;32591;48.102;11.772;2022-12-18T05:45:36;-2.80;99.90
46117;DHT22;32591;48.102;11.772;2022-12-18T05:48:04;-2.70;99.90
46117;DHT22;32591;48.102;11.772;2022-12-18T05:50:33;-2.70;99.90
46117;DHT22;32591;48.102;11.772;2022-12-18T05:53:00;-2.70;99.90
46117;DHT22;32591;48.102;11.772;2022-12-18T05:55:27;-2.60;99.90
46117;DHT22;32591;48.102;11.772;2022-12-18T05:57:54;-2.60;99.90
46117;DHT22;32591;48.102;11.772;2022-12-18T06:00:22;-2.70;99.90
46117;DHT22;32591;48.102;11.772;2022-12-18T06:02:49;-2.70;99.90
46117;DHT22;32591;48.102;11.772;2022-12-18T06:05:16;-2.70;99.90
46117;DHT22;32591;48.102;11.772;2022-12-18T06:07:43;-2.80;99.90
46117;DHT22;32591;48.102;11.772;2022-12-18T06:10:09;-2.80;99.90
46117;DHT22;32591;48.102;11.772;2022-12-18T06:12:37;-2.80;99.90
46117;DHT22;32591;48.102;11.772;2022-12-18T06:15:04;-2.70;99.90
46117;DHT22;32591;48.102;11.772;2022-12-18T06:17:33;-2.70;99.90
46117;DHT22;32591;48.102;11.772;2022-12-18T06:20:00;-2.70;99.90
46117;DHT22;32591;48.102;11.772;2022-12-18T06:22:27;-2.80;99.90
46117;DHT22;32591;48.102;11.772;2022-12-18T06:24:54;-2.80;99.90
46117;DHT22;32591;48.102;11.772;2022-12-18T06:27:21;-2.90;99.90
46117;DHT22;32591;48.102;11.772;2022-12-18T06:29:47;-3.00;99.90
46117;DHT22;32591;48.102;11.772;2022-12-18T06:32:14;-3.10;99.90
46117;DHT22;32591;48.102;11.772;2022-12-18T06:34:44;-3.10;99.90
46117;DHT22;32591;48.102;11.772;2022-12-18T06:37:11;-3.20;99.90
46117;DHT22;32591;48.102;11.772;2022-12-18T06:39:38;-3.20;99.90
46117;DHT22;32591;48.102;11.772;2022-12-18T06:42:04;-3.10;99.90
46117;DHT22;32591;48.102;11.772;2022-12-18T06:44:31;-3.00;99.90
46117;DHT22;32591;48.102;11.772;2022-12-18T06:46:58;-3.00;99.90
46117;DHT22;32591;48.102;11.772;2022-12-18T06:49:25;-3.00;99.90
46117;DHT22;32591;48.102;11.772;2022-12-18T06:51:53;-3.00;99.90
46117;DHT22;32591;48.102;11.772;2022-12-18T06:54:20;-3.20;99.90
46117;DHT22;32591;48.102;11.772;2022-12-18T06:56:47;-3.20;99.90
46117;DHT22;32591;48.102;11.772;2022-12-18T06:59:14;-3.80;99.90
46117;DHT22;32591;48.102;11.772;2022-12-18T07:01:41;-3.10;99.90
46117;DHT22;32591;48.102;11.772;2022-12-18T07:04:07;-3.00;99.90
46117;DHT22;32591;48.102;11.772;2022-12-18T07:06:34;-2.90;99.90
46117;DHT22;32591;48.102;11.772;2022-12-18T07:09:03;-2.80;99.90
46117;DHT22;32591;48.102;11.772;2022-12-18T07:11:31;-2.80;99.90
46117;DHT22;32591;48.102;11.772;2022-12-18T07:13:58;-2.80;99.90
46117;DHT22;32591;48.102;11.772;2022-12-18T07:16:25;-2.80;99.90
46117;DHT22;32591;48.102;11.772;2022-12-18T07:18:54;-2.80;99.90
46117;DHT22;32591;48.102;11.772;2022-12-18T07:21:22;-2.90;99.90
46117;DHT22;32591;48.102;11.772;2022-12-18T07:23:50;-2.90;99.90
46117;DHT22;32591;48.102;11.772;2022-12-18T07:26:19;-2.80;99.90
46117;DHT22;32591;48.102;11.772;2022-12-18T07:28:47;-2.90;99.90
46117;DHT22;32591;48.102;11.772;2022-12-18T07:31:16;-2.80;99.90
46117;DHT22;32591;48.102;11.772;2022-12-18T07:33:44;-2.70;99.90
46117;DHT22;32591;48.102;11.772;2022-12-18T07:36:11;-2.80;99.90
46117;DHT22;32591;48.102;11.772;2022-12-18T07:38:38;-2.80;99.90
46117;DHT22;32591;48.102;11.772;2022-12-18T07:41:06;-2.80;99.90
46117;DHT22;32591;48.102;11.772;2022-12-18T07:43:35;-2.80;99.90
46117;DHT22;32591;48.102;11.772;2022-12-18T07:46:02;-2.70;99.90
46117;DHT22;32591;48.102;11.772;2022-12-18T07:48:29;-2.70;99.90
46117;DHT22;32591;48.102;11.772;2022-12-18T07:50:58;-2.70;99.90
46117;DHT22;32591;48.102;11.772;2022-12-18T07:53:24;-2.70;99.90
46117;DHT22;32591;48.102;11.772;2022-12-18T07:55:54;-2.70;99.90
46117;DHT22;32591;48.102;11.772;2022-12-18T07:58:22;-2.90;99.90
46117;DHT22;32591;48.102;11.772;2022-12-18T08:00:50;-2.90;99.90
46117;DHT22;32591;48.102;11.772;2022-12-18T08:03:18;-2.80;99.90
46117;DHT22;32591;48.102;11.772;2022-12-18T08:05:45;-2.80;99.90
46117;DHT22;32591;48.102;11.772;2022-12-18T08:08:12;-2.80;99.90
46117;DHT22;32591;48.102;11.772;2022-12-18T08:10:39;-3.00;99.90
46117;DHT22;32591;48.102;11.772;2022-12-18T08:13:06;-3.00;99.90
46117;DHT22;32591;48.102;11.772;2022-12-18T08:15:33;-3.00;99.90
46117;DHT22;32591;48.102;11.772;2022-12-18T08:18:01;-2.90;99.90
46117;DHT22;32591;48.102;11.772;2022-12-18T08:20:28;-3.10;99.90
46117;DHT22;32591;48.102;11.772;2022-12-18T08:22:55;-3.00;99.90
46117;DHT22;32591;48.102;11.772;2022-12-18T08:25:23;-3.00;99.90
46117;DHT22;32591;48.102;11.772;2022-12-18T08:27:50;-2.90;99.90
46117;DHT22;32591;48.102;11.772;2022-12-18T08:30:17;-2.90;99.90
46117;DHT22;32591;48.102;11.772;2022-12-18T08:32:45;-3.10;99.90
46117;DHT22;32591;48.102;11.772;2022-12-18T08:35:13;-3.10;99.90
46117;DHT22;32591;48.102;11.772;2022-12-18T08:37:40;-3.00;99.90
46117;DHT22;32591;48.102;11.772;2022-12-18T08:40:07;-3.00;99.90
46117;DHT22;32591;48.102;11.772;2022-12-18T08:42:35;-3.10;99.90
46117;DHT22;32591;48.102;11.772;2022-12-18T08:45:20;-2.90;99.90
46117;DHT22;32591;48.102;11.772;2022-12-18T08:47:47;-2.80;99.90
46117;DHT22;32591;48.102;11.772;2022-12-18T08:50:15;-2.90;99.90
46117;DHT22;32591;48.102;11.772;2022-12-18T08:52:42;-2.90;99.90
46117;DHT22;32591;48.102;11.772;2022-12-18T08:55:09;-3.00;99.90
46117;DHT22;32591;48.102;11.772;2022-12-18T08:57:36;-3.10;99.90
46117;DHT22;32591;48.102;11.772;2022-12-18T09:00:03;-3.10;99.90
46117;DHT22;32591;48.102;11.772;2022-12-18T09:02:30;-3.10;99.90
46117;DHT22;32591;48.102;11.772;2022-12-18T09:04:57;-3.00;99.90
46117;DHT22;32591;48.102;11.772;2022-12-18T09:07:25;-3.10;99.90
46117;DHT22;32591;48.102;11.772;2022-12-18T09:09:52;-3.10;99.90
46117;DHT22;32591;48.102;11.772;2022-12-18T09:12:19;-3.10;99.90
46117;DHT22;32591;48.102;11.772;2022-12-18T09:14:46;-3.00;99.90
46117;DHT22;32591;48.102;11.772;2022-12-18T09:17:13;-3.10;99.90
46117;DHT22;32591;48.102;11.772;2022-12-18T09:19:40;-3.10;99.90
46117;DHT22;32591;48.102;11.772;2022-12-18T09:22:06;-2.90;99.90
46117;DHT22;32591;48.102;11.772;2022-12-18T09:24:36;-2.80;99.90
46117;DHT22;32591;48.102;11.772;2022-12-18T09:27:03;-2.80;99.90
46117;DHT22;32591;48.102;11.772;2022-12-18T09:29:29;-2.80;99.90
46117;DHT22;32591;48.102;11.772;2022-12-18T09:31:56;-2.80;99.90
46117;DHT22;32591;48.102;11.772;2022-12-18T09:34:23;-2.80;99.90
46117;DHT22;32591;48.102;11.772;2022-12-18T09:36:50;-2.80;99.90
46117;DHT22;32591;48.102;11.772;2022-12-18T09:39:17;-2.70;99.90
46117;DHT22;32591;48.102;11.772;2022-12-18T09:41:46;-2.80;99.90
46117;DHT22;32591;48.102;11.772;2022-12-18T09:44:17;-2.50;99.90
46117;DHT22;32591;48.102;11.772;2022-12-18T09:46:51;-0.80;99.90
46117;DHT22;32591;48.102;11.772;2022-12-18T09:49:21;3.40;99.90
46117;DHT22;32591;48.102;11.772;2022-12-18T09:51:50;1.90;99.90
46117;DHT22;32591;48.102;11.772;2022-12-18T09:54:20;0.70;99.90
46117;DHT22;32591;48.102;11.772;2022-12-18T09:56:49;-0.20;99.90
46117;DHT22;32591;48.102;11.772;2022-12-18T09:59:18;-0.80;99.90
46117;DHT22;32591;48.102;11.772;2022-12-18T10:01:48;-1.20;99.90
46117;DHT22;32591;48.102;11.772;2022-12-18T10:04:15;-1.60;99.90
46117;DHT22;32591;48.102;11.772;2022-12-18T10:06:43;-1.80;99.90
46117;DHT22;32591;48.102;11.772;2022-12-18T10:09:14;-2.00;99.90
46117;DHT22;32591;48.102;11.772;2022-12-18T10:11:47;-2.30;99.90
46117;DHT22;32591;48.102;11.772;2022-12-18T10:14:20;-2.40;99.90
46117;DHT22;32591;48.102;11.772;2022-12-18T10:16:54;-2.60;99.90
46117;DHT22;32591;48.102;11.772;2022-12-18T10:19:31;-2.60;99.90
46117;DHT22;32591;48.102;11.772;2022-12-18T10:22:10;-2.60;99.90
46117;DHT22;32591;48.102;11.772;2022-12-18T10:24:42;-2.80;99.90
46117;DHT22;32591;48.102;11.772;2022-12-18T10:27:15;-2.90;99.90
46117;DHT22;32591;48.102;11.772;2022-12-18T10:29:44;-2.90;99.90
46117;DHT22;32591;48.102;11.772;2022-12-18T10:32:15;-2.90;99.90
46117;DHT22;32591;48.102;11.772;2022-12-18T10:34:46;-2.80;99.90
46117;DHT22;32591;48.102;11.772;2022-12-18T10:37:15;-2.60;99.90
46117;DHT22;32591;48.102;11.772;2022-12-18T10:39:43;-2.50;99.90
46117;DHT22;32591;48.102;11.772;2022-12-18T10:42:11;-2.40;99.90
46117;DHT22;32591;48.102;11.772;2022-12-18T10:44:46;-2.50;99.90
46117;DHT22;32591;48.102;11.772;2022-12-18T10:47:27;-2.60;99.90
46117;DHT22;32591;48.102;11.772;2022-12-18T10:49:54;-2.50;99.90
46117;DHT22;32591;48.102;11.772;2022-12-18T10:52:21;-2.50;99.90
46117;DHT22;32591;48.102;11.772;2022-12-18T10:54:50;-2.50;99.90
46117;DHT22;32591;48.102;11.772;2022-12-18T10:57:29;-2.40;99.90
46117;DHT22;32591;48.102;11.772;2022-12-18T11:00:00;-2.30;99.90
46117;DHT22;32591;48.102;11.772;2022-12-18T11:02:45;-2.30;99.90
46117;DHT22;32591;48.102;11.772;2022-12-18T11:05:22;-2.40;99.90
46117;DHT22;32591;48.102;11.772;2022-12-18T11:07:54;-2.50;99.90
46117;DHT22;32591;48.102;11.772;2022-12-18T11:10:23;-2.50;99.90
46117;DHT22;32591;48.102;11.772;2022-12-18T11:12:53;-2.60;99.90
46117;DHT22;32591;48.102;11.772;2022-12-18T11:15:23;-1.70;99.90
46117;DHT22;32591;48.102;11.772;2022-12-18T11:17:53;-1.70;99.90
46117;DHT22;32591;48.102;11.772;2022-12-18T11:20:21;-1.80;99.90
46117;DHT22;32591;48.102;11.772;2022-12-18T11:22:56;-2.00;99.90
46117;DHT22;32591;48.102;11.772;2022-12-18T11:25:24;-2.10;99.90
46117;DHT22;32591;48.102;11.772;2022-12-18T11:27:52;-2.20;99.90
46117;DHT22;32591;48.102;11.772;2022-12-18T11:30:26;-2.30;99.90
46117;DHT22;32591;48.102;11.772;2022-12-18T11:32:59;-2.30;99.90
46117;DHT22;32591;48.102;11.772;2022-12-18T11:35:32;-2.20;99.90
46117;DHT22;32591;48.102;11.772;2022-12-18T11:38:03;-2.10;99.90
46117;DHT22;32591;48.102;11.772;2022-12-18T11:40:33;-2.10;99.90
46117;DHT22;32591;48.102;11.772;2022-12-18T11:43:02;-2.00;99.90
46117;DHT22;32591;48.102;11.772;2022-12-18T11:45:35;-1.90;99.90
46117;DHT22;32591;48.102;11.772;2022-12-18T11:48:09;-1.90;99.90
46117;DHT22;32591;48.102;11.772;2022-12-18T11:50:43;-2.00;99.90
46117;DHT22;32591;48.102;11.772;2022-12-18T11:53:13;-2.20;99.90
46117;DHT22;32591;48.102;11.772;2022-12-18T11:55:41;-2.20;99.90
46117;DHT22;32591;48.102;11.772;2022-12-18T11:58:15;-2.10;99.90
46117;DHT22;32591;48.102;11.772;2022-12-18T12:00:52;-2.00;99.90
46117;DHT22;32591;48.102;11.772;2022-12-18T12:03:27;-2.00;99.90
46117;DHT22;32591;48.102;11.772;2022-12-18T12:06:08;-2.10;99.90
46117;DHT22;32591;48.102;11.772;2022-12-18T12:08:43;-2.10;99.90
46117;DHT22;32591;48.102;11.772;2022-12-18T12:11:18;-2.00;99.90
46117;DHT22;32591;48.102;11.772;2022-12-18T12:13:52;-2.00;99.90
46117;DHT22;32591;48.102;11.772;2022-12-18T12:16:31;-2.10;99.90
46117;DHT22;32591;48.102;11.772;2022-12-18T12:19:10;-2.10;99.90
46117;DHT22;32591;48.102;11.772;2022-12-18T12:21:49;-2.10;99.90
46117;DHT22;32591;48.102;11.772;2022-12-18T12:24:23;-2.10;99.90
46117;DHT22;32591;48.102;11.772;2022-12-18T12:26:59;-2.20;99.90
46117;DHT22;32591;48.102;11.772;2022-12-18T12:29:33;-2.20;99.90
46117;DHT22;32591;48.102;11.772;2022-12-18T12:32:11;-2.20;99.90
46117;DHT22;32591;48.102;11.772;2022-12-18T12:34:47;-2.20;99.90
46117;DHT22;32591;48.102;11.772;2022-12-18T12:37:24;-2.20;99.90
46117;DHT22;32591;48.102;11.772;2022-12-18T12:39:58;-2.20;99.90
46117;DHT22;32591;48.102;11.772;2022-12-18T12:42:28;-2.20;99.90
46117;DHT22;32591;48.102;11.772;2022-12-18T12:45:16;-2.20;99.90
46117;DHT22;32591;48.102;11.772;2022-12-18T12:47:47;-2.30;99.90
46117;DHT22;32591;48.102;11.772;2022-12-18T12:50:15;-2.40;99.90
46117;DHT22;32591;48.102;11.772;2022-12-18T12:52:45;-2.30;99.90
46117;DHT22;32591;48.102;11.772;2022-12-18T12:55:14;-2.20;99.90
46117;DHT22;32591;48.102;11.772;2022-12-18T12:57:45;-2.20;99.90
46117;DHT22;32591;48.102;11.772;2022-12-18T13:00:14;-2.30;99.90
46117;DHT22;32591;48.102;11.772;2022-12-18T13:02:44;-2.20;99.90
46117;DHT22;32591;48.102;11.772;2022-12-18T13:05:17;-2.40;99.90
46117;DHT22;32591;48.102;11.772;2022-12-18T13:07:49;-2.60;99.90
46117;DHT22;32591;48.102;11.772;2022-12-18T13:10:25;-2.60;99.90
46117;DHT22;32591;48.102;11.772;2022-12-18T13:12:57;-2.60;99.90
46117;DHT22;32591;48.102;11.772;2022-12-18T13:15:27;-2.60;99.90
46117;DHT22;32591;48.102;11.772;2022-12-18T13:18:05;-2.50;99.90
46117;DHT22;32591;48.102;11.772;2022-12-18T13:20:37;-2.50;99.90
46117;DHT22;32591;48.102;11.772;2022-12-18T13:23:19;-2.40;99.90
46117;DHT22;32591;48.102;11.772;2022-12-18T13:25:52;-2.30;99.90
46117;DHT22;32591;48.102;11.772;2022-12-18T13:28:20;-2.20;99.90
46117;DHT22;32591;48.102;11.772;2022-12-18T13:30:52;-2.10;99.90
46117;DHT22;32591;48.102;11.772;2022-12-18T13:36:16;-2.10;99.90
46117;DHT22;32591;48.102;11.772;2022-12-18T13:41:51;-2.20;99.90
46117;DHT22;32591;48.102;11.772;2022-12-18T13:44:23;-2.10;99.90
46117;DHT22;32591;48.102;11.772;2022-12-18T13:46:52;-2.10;99.90
46117;DHT22;32591;48.102;11.772;2022-12-18T13:49:23;-2.10;99.90
46117;DHT22;32591;48.102;11.772;2022-12-18T13:51:51;-2.10;99.90
46117;DHT22;32591;48.102;11.772;2022-12-18T13:54:20;-2.00;99.90
46117;DHT22;32591;48.102;11.772;2022-12-18T13:56:53;-2.00;99.90
46117;DHT22;32591;48.102;11.772;2022-12-18T13:59:21;-2.00;99.90
46117;DHT22;32591;48.102;11.772;2022-12-18T14:01:50;-2.10;99.90
46117;DHT22;32591;48.102;11.772;2022-12-18T14:04:19;-2.10;99.90
46117;DHT22;32591;48.102;11.772;2022-12-18T14:06:58;-2.00;99.90
46117;DHT22;32591;48.102;11.772;2022-12-18T14:09:30;-2.10;99.90
46117;DHT22;32591;48.102;11.772;2022-12-18T14:11:58;-2.10;99.90
46117;DHT22;32591;48.102;11.772;2022-12-18T14:14:44;-2.10;99.90
46117;DHT22;32591;48.102;11.772;2022-12-18T14:17:13;-2.00;99.90
46117;DHT22;32591;48.102;11.772;2022-12-18T14:19:43;-2.10;99.90
46117;DHT22;32591;48.102;11.772;2022-12-18T14:22:14;-2.20;99.90
46117;DHT22;32591;48.102;11.772;2022-12-18T14:24:43;-2.30;99.90
46117;DHT22;32591;48.102;11.772;2022-12-18T14:27:19;-2.20;99.90
46117;DHT22;32591;48.102;11.772;2022-12-18T14:29:48;-2.10;99.90
46117;DHT22;32591;48.102;11.772;2022-12-18T14:32:15;-2.10;99.90
46117;DHT22;32591;48.102;11.772;2022-12-18T14:34:45;-2.10;99.90
46117;DHT22;32591;48.102;11.772;2022-12-18T14:37:13;-2.10;99.90
46117;DHT22;32591;48.102;11.772;2022-12-18T14:39:40;-2.20;99.90
46117;DHT22;32591;48.102;11.772;2022-12-18T14:42:10;-2.20;99.90
46117;DHT22;32591;48.102;11.772;2022-12-18T14:44:37;-2.30;99.90
46117;DHT22;32591;48.102;11.772;2022-12-18T14:47:04;-2.40;99.90
46117;DHT22;32591;48.102;11.772;2022-12-18T14:49:31;-2.40;99.90
46117;DHT22;32591;48.102;11.772;2022-12-18T14:52:00;-2.40;99.90
46117;DHT22;32591;48.102;11.772;2022-12-18T14:54:28;-2.30;99.90
46117;DHT22;32591;48.102;11.772;2022-12-18T14:56:57;-2.20;99.90
46117;DHT22;32591;48.102;11.772;2022-12-18T14:59:26;-2.30;99.90
46117;DHT22;32591;48.102;11.772;2022-12-18T15:01:58;-2.60;99.90
46117;DHT22;32591;48.102;11.772;2022-12-18T15:04:28;-2.70;99.90
46117;DHT22;32591;48.102;11.772;2022-12-18T15:07:05;-2.70;99.90
46117;DHT22;32591;48.102;11.772;2022-12-18T15:09:36;-2.60;99.90
46117;DHT22;32591;48.102;11.772;2022-12-18T15:12:04;-2.60;99.90
46117;DHT22;32591;48.102;11.772;2022-12-18T15:14:35;-2.60;99.90
46117;DHT22;32591;48.102;11.772;2022-12-18T15:17:06;-2.60;99.90
46117;DHT22;32591;48.102;11.772;2022-12-18T15:19:42;-2.60;99.90
46117;DHT22;32591;48.102;11.772;2022-12-18T15:22:25;-2.50;99.90
46117;DHT22;32591;48.102;11.772;2022-12-18T15:24:53;-2.50;99.90
46117;DHT22;32591;48.102;11.772;2022-12-18T15:27:21;-2.80;99.90
46117;DHT22;32591;48.102;11.772;2022-12-18T15:32:44;-3.20;99.90
46117;DHT22;32591;48.102;11.772;2022-12-18T15:35:14;-3.10;99.90
46117;DHT22;32591;48.102;11.772;2022-12-18T15:37:44;-3.00;99.90
46117;DHT22;32591;48.102;11.772;2022-12-18T15:40:12;-3.00;99.90
46117;DHT22;32591;48.102;11.772;2022-12-18T15:42:40;-2.90;99.90